Time;durP1;ratioP1;P1;durP2;ratioP2;P2;SDS_P1;SDS_P2;PMS_P1;PMS_P2;Temp;Humidity;BMP_temperature;BMP_pressure;BME280_temperature;BME280_humidity;BME280_pressure;Samples;Min_cycle;Max_cycle;Signal;HPM_P1;HPM_P2
2023/09/17 00:00:51;;;;;;;10.53;9.53;;;;;;;;;;5007732;28;20185;-49
2023/09/17 00:03:17;;;;;;;11.17;10.17;;;;;;;;;;5009013;28;20174;-49
2023/09/17 00:05:43;;;;;;;10.23;9.33;;;;;;;;;;5008293;28;20706;-51
2023/09/17 00:08:09;;;;;;;10.23;9.17;;;;;;;;;;5002747;28;20552;-52
2023/09/17 00:10:35;;;;;;;10.63;9.73;;;;;;;;;;5007814;28;20231;-51
2023/09/17 00:13:03;;;;;;;10.53;9.63;;;;;;;;;;5008616;28;20706;-52
2023/09/17 00:15:30;;;;;;;10.40;9.50;;;;;;;;;;5007892;28;20211;-50
2023/09/17 00:17:56;;;;;;;9.60;8.80;;;;;;;;;;4990910;28;20185;-49
2023/09/17 00:20:23;;;;;;;10.47;9.57;;;;;;;;;;5006009;28;20185;-50
2023/09/17 00:22:49;;;;;;;9.60;8.83;;;;;;;;;;5003936;28;20256;-49
2023/09/17 00:25:15;;;;;;;10.67;9.77;;;;;;;;;;5006672;28;20209;-52
2023/09/17 00:27:41;;;;;;;10.07;9.10;;;;;;;;;;5006849;28;20209;-51
2023/09/17 00:30:16;;;;;;;10.37;9.37;;;;;;;;;;5007130;28;20211;-50
2023/09/17 00:32:42;;;;;;;9.97;9.10;;;;;;;;;;5007535;28;20601;-52
2023/09/17 00:35:08;;;;;;;10.00;9.10;;;;;;;;;;5006914;28;20396;-50
2023/09/17 00:37:34;;;;;;;10.80;9.70;;;;;;;;;;5005912;28;20604;-50
2023/09/17 00:40:01;;;;;;;9.70;8.90;;;;;;;;;;5007510;28;20654;-50
2023/09/17 00:42:27;;;;;;;10.00;9.10;;;;;;;;;;5006456;28;21373;-49
2023/09/17 00:44:53;;;;;;;9.53;8.73;;;;;;;;;;5007729;28;20224;-49
2023/09/17 00:47:20;;;;;;;9.77;8.97;;;;;;;;;;5006967;28;20281;-50
2023/09/17 00:49:46;;;;;;;9.27;8.40;;;;;;;;;;4988829;28;20277;-52
2023/09/17 00:52:18;;;;;;;9.03;8.33;;;;;;;;;;5004902;28;20205;-50
2023/09/17 00:54:45;;;;;;;8.70;8.00;;;;;;;;;;5007739;28;20214;-49
2023/09/17 00:57:19;;;;;;;10.23;9.17;;;;;;;;;;5003563;28;20654;-49
2023/09/17 00:59:45;;;;;;;10.30;9.40;;;;;;;;;;5004280;28;20183;-49
2023/09/17 01:02:13;;;;;;;10.20;9.30;;;;;;;;;;5002931;28;20174;-49
2023/09/17 01:04:42;;;;;;;9.03;8.20;;;;;;;;;;5006900;28;20254;-50
2023/09/17 01:07:09;;;;;;;9.90;8.90;;;;;;;;;;5002214;28;20189;-50
2023/09/17 01:09:36;;;;;;;10.13;9.30;;;;;;;;;;5006519;28;20192;-49
2023/09/17 01:12:06;;;;;;;10.73;9.83;;;;;;;;;;5006868;28;20227;-49
2023/09/17 01:14:34;;;;;;;10.07;8.97;;;;;;;;;;5005029;28;20575;-48
2023/09/17 01:17:06;;;;;;;9.20;8.40;;;;;;;;;;5003032;28;20232;-49
2023/09/17 01:19:33;;;;;;;9.70;8.90;;;;;;;;;;5006030;28;20181;-48
2023/09/17 01:22:06;;;;;;;9.07;8.20;;;;;;;;;;5006405;28;20221;-50
2023/09/17 01:24:47;;;;;;;9.93;9.20;;;;;;;;;;5006988;28;20306;-52
2023/09/17 01:27:14;;;;;;;10.63;9.73;;;;;;;;;;5005820;28;20196;-48
2023/09/17 01:29:42;;;;;;;9.17;8.47;;;;;;;;;;5007191;28;20258;-49
2023/09/17 01:32:10;;;;;;;9.47;8.20;;;;;;;;;;5005540;28;20187;-49
2023/09/17 01:34:38;;;;;;;9.60;8.50;;;;;;;;;;5007032;28;20201;-50
2023/09/17 01:37:27;;;;;;;8.73;8.03;;;;;;;;;;5010105;28;20183;-50
2023/09/17 01:39:56;;;;;;;9.80;9.00;;;;;;;;;;4999578;28;20191;-47
2023/09/17 01:42:26;;;;;;;8.60;7.87;;;;;;;;;;5013242;28;20287;-49
2023/09/17 01:44:53;;;;;;;9.50;8.60;;;;;;;;;;5011881;28;20234;-48
2023/09/17 01:47:20;;;;;;;8.53;7.73;;;;;;;;;;5011871;28;20224;-48
2023/09/17 01:49:46;;;;;;;9.63;8.83;;;;;;;;;;4995712;28;20286;-49
2023/09/17 01:52:14;;;;;;;8.80;8.10;;;;;;;;;;5009493;28;20434;-49
2023/09/17 01:54:40;;;;;;;7.80;7.20;;;;;;;;;;4992794;28;20582;-48
2023/09/17 01:57:08;;;;;;;8.77;8.07;;;;;;;;;;5013494;28;20184;-51
2023/09/17 01:59:34;;;;;;;8.90;8.10;;;;;;;;;;5013973;28;20182;-49
2023/09/17 02:02:02;;;;;;;8.77;8.00;;;;;;;;;;5013499;28;20184;-49
2023/09/17 02:04:28;;;;;;;9.17;8.40;;;;;;;;;;5011749;28;20190;-48
2023/09/17 02:06:55;;;;;;;9.50;8.70;;;;;;;;;;5011672;28;20866;-49
2023/09/17 02:09:21;;;;;;;8.60;7.80;;;;;;;;;;5011305;28;20185;-49
2023/09/17 02:11:48;;;;;;;8.80;8.10;;;;;;;;;;5012045;28;20495;-49
2023/09/17 02:14:15;;;;;;;8.17;7.47;;;;;;;;;;5012223;28;20187;-50
2023/09/17 02:16:43;;;;;;;8.63;8.03;;;;;;;;;;5009323;28;20526;-50
2023/09/17 02:19:10;;;;;;;8.90;8.17;;;;;;;;;;5010886;28;20185;-48
2023/09/17 02:21:36;;;;;;;8.90;8.10;;;;;;;;;;5008633;28;20272;-48
2023/09/17 02:24:02;;;;;;;9.60;8.80;;;;;;;;;;5008469;28;20264;-50
2023/09/17 02:26:29;;;;;;;9.47;8.67;;;;;;;;;;5012949;28;20186;-49
2023/09/17 02:28:55;;;;;;;8.37;7.67;;;;;;;;;;5012881;28;20313;-49
2023/09/17 02:31:22;;;;;;;9.50;8.50;;;;;;;;;;5008377;28;20199;-49
2023/09/17 02:33:48;;;;;;;10.27;8.60;;;;;;;;;;5008937;28;20181;-50
2023/09/17 02:36:17;;;;;;;9.00;8.20;;;;;;;;;;5011495;28;20692;-49
2023/09/17 02:38:43;;;;;;;9.73;8.83;;;;;;;;;;5011807;28;20563;-48
2023/09/17 02:41:09;;;;;;;9.20;8.30;;;;;;;;;;5008790;28;20183;-49
2023/09/17 02:43:37;;;;;;;9.53;8.63;;;;;;;;;;5013139;28;20373;-50
2023/09/17 02:46:03;;;;;;;9.53;8.67;;;;;;;;;;5010682;28;20273;-48
2023/09/17 02:48:32;;;;;;;8.07;7.40;;;;;;;;;;5009072;28;20190;-51
2023/09/17 02:50:58;;;;;;;9.03;8.33;;;;;;;;;;5006144;28;20523;-47
2023/09/17 02:53:27;;;;;;;7.97;7.33;;;;;;;;;;5004424;28;20289;-49
2023/09/17 02:55:54;;;;;;;8.57;7.87;;;;;;;;;;5004051;28;20199;-49
2023/09/17 02:58:21;;;;;;;8.30;7.60;;;;;;;;;;5007032;28;20218;-52
2023/09/17 03:00:47;;;;;;;8.13;7.43;;;;;;;;;;5006752;28;20609;-50
2023/09/17 03:03:14;;;;;;;9.20;8.50;;;;;;;;;;5005884;28;20619;-50
2023/09/17 03:05:40;;;;;;;8.40;7.67;;;;;;;;;;5008222;28;20536;-50
2023/09/17 03:08:09;;;;;;;8.63;7.93;;;;;;;;;;5006991;28;20230;-49
2023/09/17 03:10:41;;;;;;;8.07;7.47;;;;;;;;;;5008699;28;20351;-51
2023/09/17 03:13:09;;;;;;;8.53;7.83;;;;;;;;;;5004236;28;20641;-49
2023/09/17 03:15:36;;;;;;;7.57;6.97;;;;;;;;;;5008600;28;20210;-50
2023/09/17 03:18:05;;;;;;;8.30;7.60;;;;;;;;;;5003380;28;20209;-50
2023/09/17 03:20:34;;;;;;;9.10;8.30;;;;;;;;;;5006041;28;20178;-53
2023/09/17 03:23:04;;;;;;;8.47;7.67;;;;;;;;;;5008719;28;20172;-50
2023/09/17 03:25:31;;;;;;;7.90;7.10;;;;;;;;;;5005344;28;20285;-51
2023/09/17 03:27:59;;;;;;;8.27;7.53;;;;;;;;;;5006881;28;20720;-50
2023/09/17 03:30:25;;;;;;;8.10;7.40;;;;;;;;;;5007874;28;20280;-52
2023/09/17 03:32:52;;;;;;;8.23;7.53;;;;;;;;;;5009314;28;20514;-51
2023/09/17 03:35:18;;;;;;;8.87;8.17;;;;;;;;;;5007424;28;20372;-50
2023/09/17 03:37:45;;;;;;;8.07;7.37;;;;;;;;;;5006664;28;20181;-50
2023/09/17 03:40:12;;;;;;;9.97;9.17;;;;;;;;;;5008567;28;20493;-51
2023/09/17 03:42:40;;;;;;;8.00;7.40;;;;;;;;;;5005217;28;20194;-50
2023/09/17 03:45:09;;;;;;;9.17;8.47;;;;;;;;;;5008158;28;20212;-51
2023/09/17 03:47:35;;;;;;;7.93;7.30;;;;;;;;;;5005481;28;20270;-51
2023/09/17 03:50:04;;;;;;;8.40;7.70;;;;;;;;;;5006715;28;20227;-50
2023/09/17 03:52:30;;;;;;;7.73;7.03;;;;;;;;;;5005442;28;20267;-50
2023/09/17 03:54:56;;;;;;;8.87;8.07;;;;;;;;;;5008556;28;20300;-50
2023/09/17 03:57:23;;;;;;;9.03;8.23;;;;;;;;;;5008076;28;20233;-49
2023/09/17 03:59:49;;;;;;;8.37;7.67;;;;;;;;;;5006766;28;20175;-50
2023/09/17 04:02:16;;;;;;;9.27;8.60;;;;;;;;;;5005963;28;20226;-51
2023/09/17 04:04:42;;;;;;;8.43;7.70;;;;;;;;;;5008141;28;20669;-52
2023/09/17 04:07:08;;;;;;;9.03;8.33;;;;;;;;;;5005301;28;20471;-53
2023/09/17 04:09:35;;;;;;;9.07;8.27;;;;;;;;;;5002509;28;20274;-50
2023/09/17 04:12:05;;;;;;;8.07;7.40;;;;;;;;;;5006837;28;20230;-51
2023/09/17 04:14:31;;;;;;;7.60;6.97;;;;;;;;;;5008837;28;20308;-50
2023/09/17 04:17:02;;;;;;;8.67;7.97;;;;;;;;;;5007913;28;20187;-50
2023/09/17 04:19:32;;;;;;;9.10;8.23;;;;;;;;;;5008585;28;20183;-50
2023/09/17 04:22:02;;;;;;;8.93;8.23;;;;;;;;;;4989228;28;20177;-50
2023/09/17 04:24:29;;;;;;;8.77;8.07;;;;;;;;;;5005981;28;20287;-50
2023/09/17 04:26:56;;;;;;;8.50;7.80;;;;;;;;;;5003975;28;20666;-50
2023/09/17 04:29:22;;;;;;;8.57;7.87;;;;;;;;;;5007616;28;20247;-52
2023/09/17 04:31:48;;;;;;;8.77;7.97;;;;;;;;;;5006207;28;20196;-51
2023/09/17 04:34:14;;;;;;;8.20;7.50;;;;;;;;;;5007579;28;20244;-51
2023/09/17 04:36:40;;;;;;;8.33;7.57;;;;;;;;;;5006235;28;20628;-50
2023/09/17 04:39:09;;;;;;;8.83;8.07;;;;;;;;;;5006055;28;20524;-50
2023/09/17 04:41:35;;;;;;;8.23;7.53;;;;;;;;;;4999906;28;20497;-50
2023/09/17 04:44:03;;;;;;;8.67;7.30;;;;;;;;;;5007628;28;20328;-50
2023/09/17 04:46:29;;;;;;;8.10;7.43;;;;;;;;;;5002074;28;20297;-50
2023/09/17 04:48:56;;;;;;;7.70;7.00;;;;;;;;;;5006938;28;20313;-51
2023/09/17 04:51:23;;;;;;;8.70;7.90;;;;;;;;;;5006160;28;20501;-51
2023/09/17 04:53:49;;;;;;;8.37;7.67;;;;;;;;;;5005107;28;20182;-51
2023/09/17 04:56:15;;;;;;;10.30;9.40;;;;;;;;;;5006655;28;20252;-50
2023/09/17 04:58:41;;;;;;;9.77;8.87;;;;;;;;;;5005798;28;20204;-50
2023/09/17 05:01:07;;;;;;;9.43;8.53;;;;;;;;;;5003976;28;20593;-49
2023/09/17 05:03:33;;;;;;;8.43;7.80;;;;;;;;;;5006650;28;20195;-50
2023/09/17 05:06:00;;;;;;;8.27;7.47;;;;;;;;;;5007292;28;20345;-50
2023/09/17 05:08:26;;;;;;;8.60;7.80;;;;;;;;;;5006644;28;20188;-52
2023/09/17 05:10:53;;;;;;;7.90;7.20;;;;;;;;;;4980939;28;20232;-51
2023/09/17 05:13:19;;;;;;;7.80;7.20;;;;;;;;;;5005653;28;20601;-50
2023/09/17 05:15:45;;;;;;;7.70;7.00;;;;;;;;;;5006636;28;20642;-50
2023/09/17 05:18:11;;;;;;;8.33;7.57;;;;;;;;;;5006309;28;20183;-50
2023/09/17 05:20:41;;;;;;;7.80;7.10;;;;;;;;;;4989760;28;20356;-49
2023/09/17 05:23:07;;;;;;;7.80;6.93;;;;;;;;;;5006178;28;20191;-51
2023/09/17 05:25:35;;;;;;;7.87;7.27;;;;;;;;;;5005877;28;20270;-51
2023/09/17 05:28:06;;;;;;;7.40;6.83;;;;;;;;;;4988047;28;20598;-51
2023/09/17 05:30:32;;;;;;;8.53;7.80;;;;;;;;;;5003981;28;20279;-49
2023/09/17 05:32:58;;;;;;;7.77;7.07;;;;;;;;;;5006895;28;20345;-51
2023/09/17 05:35:25;;;;;;;7.97;7.27;;;;;;;;;;5006628;28;20213;-51
2023/09/17 05:37:51;;;;;;;7.00;6.40;;;;;;;;;;5003157;28;20179;-49
2023/09/17 05:40:17;;;;;;;7.70;7.10;;;;;;;;;;5007546;28;20532;-49
2023/09/17 05:42:43;;;;;;;7.97;7.37;;;;;;;;;;5006659;28;20294;-49
2023/09/17 05:45:12;;;;;;;7.10;6.50;;;;;;;;;;5004113;28;20198;-50
2023/09/17 05:47:40;;;;;;;7.83;6.93;;;;;;;;;;5006046;28;20313;-50
2023/09/17 05:50:07;;;;;;;8.00;7.30;;;;;;;;;;4981904;28;20182;-51
2023/09/17 05:52:33;;;;;;;7.33;6.73;;;;;;;;;;5001266;28;20892;-49
2023/09/17 05:55:00;;;;;;;8.40;7.70;;;;;;;;;;5002700;28;20214;-50
2023/09/17 05:57:27;;;;;;;7.47;6.87;;;;;;;;;;5005307;28;20731;-49
2023/09/17 05:59:53;;;;;;;8.87;8.13;;;;;;;;;;5007432;28;20552;-49
2023/09/17 06:02:20;;;;;;;8.27;7.60;;;;;;;;;;5004835;28;20644;-49
2023/09/17 06:04:51;;;;;;;8.50;7.80;;;;;;;;;;5006685;28;20179;-49
2023/09/17 06:07:17;;;;;;;8.90;8.10;;;;;;;;;;5004055;28;20175;-48
2023/09/17 06:09:43;;;;;;;7.73;7.03;;;;;;;;;;5002037;28;20264;-51
2023/09/17 06:12:09;;;;;;;7.13;6.43;;;;;;;;;;5003026;28;20187;-50
2023/09/17 06:14:35;;;;;;;8.17;7.47;;;;;;;;;;5007586;28;20690;-50
2023/09/17 06:17:01;;;;;;;7.93;7.23;;;;;;;;;;5005157;28;20189;-50
2023/09/17 06:19:29;;;;;;;8.77;7.97;;;;;;;;;;4999140;28;20176;-49
2023/09/17 06:21:55;;;;;;;8.07;7.37;;;;;;;;;;5001961;28;20233;-50
2023/09/17 06:24:21;;;;;;;8.97;7.90;;;;;;;;;;5006953;28;20190;-50
2023/09/17 06:26:48;;;;;;;7.97;7.37;;;;;;;;;;5005551;28;20275;-50
2023/09/17 06:29:14;;;;;;;9.10;7.80;;;;;;;;;;5006504;28;20232;-49
2023/09/17 06:31:40;;;;;;;8.13;7.47;;;;;;;;;;5005990;28;20201;-52
2023/09/17 06:34:06;;;;;;;9.17;8.37;;;;;;;;;;5007697;28;20587;-48
2023/09/17 06:36:32;;;;;;;9.13;8.33;;;;;;;;;;5007082;28;20256;-50
2023/09/17 06:38:59;;;;;;;9.20;8.37;;;;;;;;;;5006640;28;20202;-50
2023/09/17 06:41:25;;;;;;;9.27;8.37;;;;;;;;;;5005146;28;20196;-49
2023/09/17 06:43:51;;;;;;;9.87;9.07;;;;;;;;;;5004975;28;20191;-51
2023/09/17 06:46:17;;;;;;;9.40;8.53;;;;;;;;;;5003649;28;20186;-49
2023/09/17 06:48:44;;;;;;;9.43;8.63;;;;;;;;;;5006648;28;20191;-51
2023/09/17 06:51:10;;;;;;;9.50;8.70;;;;;;;;;;5001607;28;20193;-49
2023/09/17 06:53:36;;;;;;;9.37;8.57;;;;;;;;;;5007190;28;20240;-50
2023/09/17 06:56:02;;;;;;;9.80;9.00;;;;;;;;;;5002519;28;20264;-50
2023/09/17 06:58:28;;;;;;;9.97;8.97;;;;;;;;;;5001898;28;20236;-53
2023/09/17 07:00:54;;;;;;;10.10;9.23;;;;;;;;;;5008853;28;20188;-50
2023/09/17 07:03:21;;;;;;;9.57;8.67;;;;;;;;;;5008055;28;20555;-50
2023/09/17 07:05:47;;;;;;;9.33;8.53;;;;;;;;;;4990663;28;20572;-52
2023/09/17 07:08:13;;;;;;;10.33;9.33;;;;;;;;;;5009185;28;20183;-50
2023/09/17 07:10:40;;;;;;;10.07;9.17;;;;;;;;;;5010504;28;20684;-51
2023/09/17 07:13:06;;;;;;;9.83;8.93;;;;;;;;;;5009727;28;20277;-50
2023/09/17 07:15:32;;;;;;;9.60;8.60;;;;;;;;;;5008336;28;20228;-50
2023/09/17 07:17:58;;;;;;;9.33;8.53;;;;;;;;;;5010149;28;20185;-50
2023/09/17 07:20:24;;;;;;;11.07;10.00;;;;;;;;;;5008441;28;20262;-50
2023/09/17 07:22:53;;;;;;;10.43;9.53;;;;;;;;;;5006858;28;20206;-50
2023/09/17 07:25:19;;;;;;;10.10;9.20;;;;;;;;;;5009500;28;20263;-50
2023/09/17 07:27:45;;;;;;;9.03;8.23;;;;;;;;;;4990817;28;20243;-52
2023/09/17 07:30:12;;;;;;;10.27;9.27;;;;;;;;;;5008751;28;20315;-51
2023/09/17 07:32:38;;;;;;;10.10;9.20;;;;;;;;;;5008957;28;20476;-50
2023/09/17 07:35:05;;;;;;;9.63;8.83;;;;;;;;;;5006653;28;20194;-54
2023/09/17 07:37:31;;;;;;;11.00;9.30;;;;;;;;;;5006130;28;20656;-50
2023/09/17 07:40:01;;;;;;;9.80;9.00;;;;;;;;;;5010158;28;20623;-52
2023/09/17 07:42:27;;;;;;;10.07;9.17;;;;;;;;;;4990489;28;20189;-51
2023/09/17 07:44:53;;;;;;;10.00;9.10;;;;;;;;;;5007554;28;20204;-51
2023/09/17 07:47:20;;;;;;;8.97;8.17;;;;;;;;;;5008201;28;20188;-51
2023/09/17 07:49:46;;;;;;;8.57;7.73;;;;;;;;;;5009294;28;20227;-51
2023/09/17 07:52:15;;;;;;;8.10;7.40;;;;;;;;;;5007577;28;20189;-51
2023/09/17 07:54:42;;;;;;;8.60;7.80;;;;;;;;;;5008123;28;20703;-51
2023/09/17 07:57:11;;;;;;;8.87;8.07;;;;;;;;;;5009212;28;20539;-51
2023/09/17 07:59:40;;;;;;;8.63;7.93;;;;;;;;;;5008632;28;20188;-52
2023/09/17 08:02:07;;;;;;;9.57;8.67;;;;;;;;;;4990006;28;20531;-50
2023/09/17 08:04:34;;;;;;;8.13;7.43;;;;;;;;;;5000089;28;20220;-51
2023/09/17 08:07:00;;;;;;;9.20;8.40;;;;;;;;;;5005364;28;20232;-52
2023/09/17 08:09:27;;;;;;;9.70;7.87;;;;;;;;;;5005789;28;20271;-51
2023/09/17 08:11:53;;;;;;;8.07;7.37;;;;;;;;;;5005789;28;20184;-50
2023/09/17 08:14:22;;;;;;;7.40;6.80;;;;;;;;;;5004896;28;20171;-52
2023/09/17 08:16:50;;;;;;;9.43;8.43;;;;;;;;;;5005527;28;20177;-52
2023/09/17 08:19:16;;;;;;;8.53;7.73;;;;;;;;;;5003944;28;20544;-52
2023/09/17 08:21:42;;;;;;;7.67;7.07;;;;;;;;;;5002669;28;20224;-51
2023/09/17 08:24:08;;;;;;;8.20;7.43;;;;;;;;;;5007605;28;20185;-49
2023/09/17 08:26:34;;;;;;;7.23;6.43;;;;;;;;;;5004315;28;20188;-50
2023/09/17 08:29:01;;;;;;;9.90;7.97;;;;;;;;;;4985036;28;20218;-52
2023/09/17 08:31:28;;;;;;;8.77;7.53;;;;;;;;;;5004155;28;20517;-51
2023/09/17 08:33:54;;;;;;;7.67;7.07;;;;;;;;;;5003373;28;20246;-51
2023/09/17 08:36:21;;;;;;;7.80;7.13;;;;;;;;;;4983417;28;20510;-50
2023/09/17 08:38:51;;;;;;;7.00;6.40;;;;;;;;;;5004596;28;20177;-51
2023/09/17 08:41:22;;;;;;;7.67;7.03;;;;;;;;;;5004735;28;20221;-51
2023/09/17 08:43:49;;;;;;;7.50;6.90;;;;;;;;;;5001878;28;20724;-53
2023/09/17 08:46:16;;;;;;;7.00;6.40;;;;;;;;;;4995957;28;20198;-49
2023/09/17 08:48:43;;;;;;;8.10;6.77;;;;;;;;;;5004399;28;20656;-50
2023/09/17 08:51:11;;;;;;;7.17;6.47;;;;;;;;;;5005614;28;20286;-50
2023/09/17 08:53:40;;;;;;;7.53;6.93;;;;;;;;;;5004184;28;20193;-50
2023/09/17 08:56:07;;;;;;;7.67;6.77;;;;;;;;;;5005658;28;20566;-51
2023/09/17 08:58:38;;;;;;;6.17;5.57;;;;;;;;;;5000412;28;20187;-50
2023/09/17 09:01:07;;;;;;;7.07;6.37;;;;;;;;;;5002606;28;20207;-52
2023/09/17 09:03:35;;;;;;;7.03;5.87;;;;;;;;;;5007914;28;20187;-52
2023/09/17 09:06:03;;;;;;;6.60;6.03;;;;;;;;;;5004934;28;20189;-52
2023/09/17 09:08:31;;;;;;;6.63;6.03;;;;;;;;;;5006397;28;20647;-51
2023/09/17 09:10:57;;;;;;;7.03;6.43;;;;;;;;;;5006284;28;20265;-52
2023/09/17 09:13:24;;;;;;;7.33;6.67;;;;;;;;;;5004830;28;20187;-53
2023/09/17 09:15:51;;;;;;;6.30;5.80;;;;;;;;;;4985115;28;20220;-53
2023/09/17 09:18:17;;;;;;;6.43;5.83;;;;;;;;;;5007680;28;20618;-53
2023/09/17 09:20:43;;;;;;;6.40;5.93;;;;;;;;;;5003261;28;20528;-53
2023/09/17 09:23:09;;;;;;;6.30;5.70;;;;;;;;;;5005184;28;20187;-52
2023/09/17 09:25:35;;;;;;;6.70;6.20;;;;;;;;;;5006147;28;20193;-52
2023/09/17 09:28:02;;;;;;;6.07;5.57;;;;;;;;;;5007569;28;20486;-52
2023/09/17 09:30:29;;;;;;;9.23;5.60;;;;;;;;;;5004332;28;20234;-51
2023/09/17 09:32:56;;;;;;;5.77;5.37;;;;;;;;;;5005245;28;20217;-49
2023/09/17 09:35:22;;;;;;;6.53;5.30;;;;;;;;;;5004681;28;20225;-52
2023/09/17 09:37:48;;;;;;;5.13;4.63;;;;;;;;;;5005885;28;20214;-52
2023/09/17 09:40:15;;;;;;;5.37;4.97;;;;;;;;;;5000224;28;20222;-50
2023/09/17 09:42:42;;;;;;;5.93;5.43;;;;;;;;;;5006321;28;20166;-50
2023/09/17 09:45:17;;;;;;;6.80;6.23;;;;;;;;;;5005805;28;20812;-50
2023/09/17 09:47:50;;;;;;;5.50;4.97;;;;;;;;;;5004215;28;20200;-51
2023/09/17 09:50:23;;;;;;;5.00;4.60;;;;;;;;;;5004248;28;20609;-48
2023/09/17 09:52:49;;;;;;;5.63;5.13;;;;;;;;;;5001613;28;20315;-49
2023/09/17 09:55:15;;;;;;;5.37;4.87;;;;;;;;;;5003327;28;20200;-51
2023/09/17 09:57:44;;;;;;;5.97;5.27;;;;;;;;;;5000422;28;20189;-49
2023/09/17 10:00:12;;;;;;;5.63;5.17;;;;;;;;;;5007621;28;20210;-46
2023/09/17 10:02:40;;;;;;;5.43;4.97;;;;;;;;;;5008521;28;20214;-48
2023/09/17 10:05:07;;;;;;;5.83;5.30;;;;;;;;;;5011320;28;20203;-48
2023/09/17 10:07:34;;;;;;;5.33;4.77;;;;;;;;;;5007532;28;20198;-47
2023/09/17 10:10:00;;;;;;;6.00;5.03;;;;;;;;;;5008509;28;20185;-47
2023/09/17 10:12:27;;;;;;;5.83;5.33;;;;;;;;;;5010131;28;20290;-48
2023/09/17 10:14:53;;;;;;;6.17;5.27;;;;;;;;;;5004883;28;20209;-47
2023/09/17 10:17:20;;;;;;;6.10;5.50;;;;;;;;;;5006377;28;20420;-46
2023/09/17 10:19:47;;;;;;;5.27;4.77;;;;;;;;;;5010949;28;20195;-46
2023/09/17 10:22:15;;;;;;;5.87;5.37;;;;;;;;;;5007791;28;20185;-47
2023/09/17 10:24:42;;;;;;;5.97;4.90;;;;;;;;;;5010854;28;20259;-48
2023/09/17 10:27:09;;;;;;;6.50;5.87;;;;;;;;;;5010817;28;20240;-48
2023/09/17 10:29:35;;;;;;;5.77;5.30;;;;;;;;;;5006405;28;20322;-48
2023/09/17 10:32:03;;;;;;;6.93;5.20;;;;;;;;;;5010692;28;20190;-47
2023/09/17 10:34:31;;;;;;;6.00;5.40;;;;;;;;;;5010271;28;20295;-47
2023/09/17 10:36:58;;;;;;;5.40;4.67;;;;;;;;;;5009781;28;20191;-47
2023/09/17 10:39:27;;;;;;;7.10;5.13;;;;;;;;;;5008077;28;20197;-46
2023/09/17 10:41:55;;;;;;;5.20;4.80;;;;;;;;;;5009690;28;20216;-48
2023/09/17 10:44:23;;;;;;;5.33;4.90;;;;;;;;;;5009794;28;20192;-46
2023/09/17 10:46:50;;;;;;;5.30;4.87;;;;;;;;;;5009520;28;20316;-50
2023/09/17 10:49:17;;;;;;;7.00;4.83;;;;;;;;;;5006663;28;20200;-48
2023/09/17 10:51:44;;;;;;;4.80;4.40;;;;;;;;;;5008783;28;20218;-49
2023/09/17 10:54:11;;;;;;;4.80;4.40;;;;;;;;;;5006137;28;20184;-49
2023/09/17 10:56:41;;;;;;;4.80;4.40;;;;;;;;;;5009168;28;20205;-48
2023/09/17 10:59:08;;;;;;;5.50;5.00;;;;;;;;;;5010040;28;20596;-48
2023/09/17 11:01:34;;;;;;;5.87;4.73;;;;;;;;;;5009143;28;20193;-49
2023/09/17 11:04:03;;;;;;;5.47;5.03;;;;;;;;;;5009579;28;20288;-48
2023/09/17 11:06:32;;;;;;;4.70;4.30;;;;;;;;;;5006479;28;20191;-48
2023/09/17 11:08:58;;;;;;;4.83;4.33;;;;;;;;;;5004895;28;20183;-51
2023/09/17 11:11:25;;;;;;;4.60;4.10;;;;;;;;;;5008138;28;20187;-48
2023/09/17 11:13:53;;;;;;;4.40;4.10;;;;;;;;;;5007180;28;20198;-48
2023/09/17 11:16:19;;;;;;;4.67;4.23;;;;;;;;;;4998130;28;20295;-48
2023/09/17 11:19:04;;;;;;;5.70;5.20;;;;;;;;;;5006556;28;20451;-50
2023/09/17 11:21:30;;;;;;;4.13;3.83;;;;;;;;;;5007442;28;20209;-50
2023/09/17 11:23:56;;;;;;;5.13;4.73;;;;;;;;;;5007069;28;20271;-49
2023/09/17 11:26:27;;;;;;;5.90;4.40;;;;;;;;;;5008921;28;20289;-48
2023/09/17 11:28:57;;;;;;;5.47;4.97;;;;;;;;;;5007678;28;20285;-49
2023/09/17 11:31:27;;;;;;;5.37;4.77;;;;;;;;;;5006133;28;20757;-48
2023/09/17 11:33:54;;;;;;;4.63;4.23;;;;;;;;;;5008238;28;20265;-49
2023/09/17 11:36:20;;;;;;;5.07;4.67;;;;;;;;;;5008815;28;20215;-49
2023/09/17 11:38:47;;;;;;;4.90;4.50;;;;;;;;;;5007510;28;20557;-49
2023/09/17 11:41:19;;;;;;;5.57;5.17;;;;;;;;;;5006325;28;20181;-49
2023/09/17 11:43:45;;;;;;;5.20;4.80;;;;;;;;;;5008477;28;20190;-51
2023/09/17 11:46:12;;;;;;;5.13;4.73;;;;;;;;;;5007883;28;20188;-50
2023/09/17 11:48:41;;;;;;;5.67;5.10;;;;;;;;;;5008859;28;20201;-49
2023/09/17 11:51:20;;;;;;;5.73;5.23;;;;;;;;;;5005394;28;20193;-51
2023/09/17 11:53:58;;;;;;;5.93;5.53;;;;;;;;;;5005414;28;20255;-49
2023/09/17 11:56:25;;;;;;;5.17;4.67;;;;;;;;;;5000029;28;20556;-49
2023/09/17 11:59:02;;;;;;;5.23;4.80;;;;;;;;;;5007571;28;20188;-49
2023/09/17 12:01:30;;;;;;;7.17;5.07;;;;;;;;;;5009050;28;20180;-49
2023/09/17 12:03:57;;;;;;;5.27;4.77;;;;;;;;;;5008566;28;20257;-49
2023/09/17 12:06:24;;;;;;;5.33;4.87;;;;;;;;;;5007792;28;20179;-49
2023/09/17 12:08:50;;;;;;;5.17;4.67;;;;;;;;;;5007667;28;20215;-49
2023/09/17 12:11:22;;;;;;;4.87;4.47;;;;;;;;;;5007518;28;20182;-49
2023/09/17 12:13:53;;;;;;;8.27;5.20;;;;;;;;;;5004251;28;20210;-51
2023/09/17 12:16:19;;;;;;;5.27;4.83;;;;;;;;;;5007914;28;20207;-49
2023/09/17 12:18:46;;;;;;;5.03;4.53;;;;;;;;;;5008883;28;20264;-50
2023/09/17 12:21:12;;;;;;;6.37;5.00;;;;;;;;;;5006232;28;20659;-50
2023/09/17 12:23:47;;;;;;;5.60;5.10;;;;;;;;;;5005991;28;20594;-51
2023/09/17 12:26:22;;;;;;;5.60;5.10;;;;;;;;;;5005927;28;20191;-49
2023/09/17 12:28:48;;;;;;;5.20;4.70;;;;;;;;;;5006241;28;20584;-50
2023/09/17 12:31:14;;;;;;;5.30;4.90;;;;;;;;;;5006861;28;20206;-51
2023/09/17 12:33:43;;;;;;;5.27;4.77;;;;;;;;;;5006997;28;20616;-52
2023/09/17 12:36:09;;;;;;;5.47;4.93;;;;;;;;;;5007232;28;20326;-51
2023/09/17 12:38:35;;;;;;;5.33;4.93;;;;;;;;;;5007946;28;20189;-51
2023/09/17 12:41:01;;;;;;;5.27;4.60;;;;;;;;;;5006150;28;20193;-52
2023/09/17 12:43:27;;;;;;;5.20;4.80;;;;;;;;;;5008521;28;20208;-51
2023/09/17 12:45:53;;;;;;;5.07;4.67;;;;;;;;;;5007771;28;20205;-51
2023/09/17 12:48:20;;;;;;;4.60;4.30;;;;;;;;;;4990251;28;20259;-50
2023/09/17 12:50:46;;;;;;;4.90;4.50;;;;;;;;;;5005871;28;20737;-52
2023/09/17 12:53:13;;;;;;;5.83;5.33;;;;;;;;;;4998069;28;20202;-51
2023/09/17 12:55:39;;;;;;;5.43;4.40;;;;;;;;;;5004774;28;20554;-52
2023/09/17 12:58:07;;;;;;;5.03;4.63;;;;;;;;;;5003826;28;20551;-52
2023/09/17 13:00:33;;;;;;;5.83;4.43;;;;;;;;;;4999166;28;20198;-51
2023/09/17 13:03:13;;;;;;;5.53;4.97;;;;;;;;;;5004368;28;20186;-51
2023/09/17 13:05:39;;;;;;;5.37;4.87;;;;;;;;;;4998647;28;20318;-50
2023/09/17 13:08:07;;;;;;;5.10;4.57;;;;;;;;;;5005639;28;20191;-52
2023/09/17 13:10:33;;;;;;;4.87;4.57;;;;;;;;;;5003501;28;20200;-52
2023/09/17 13:13:03;;;;;;;5.77;4.40;;;;;;;;;;4986270;28;20189;-50
2023/09/17 13:15:29;;;;;;;4.90;4.40;;;;;;;;;;5006980;28;20577;-51
2023/09/17 13:17:55;;;;;;;4.63;4.23;;;;;;;;;;5006763;28;20189;-52
2023/09/17 13:20:22;;;;;;;5.17;4.70;;;;;;;;;;5007014;28;20192;-52
2023/09/17 13:22:50;;;;;;;4.80;4.50;;;;;;;;;;5007311;28;20189;-51
2023/09/17 13:25:16;;;;;;;4.63;4.33;;;;;;;;;;5007410;28;20271;-50
2023/09/17 13:27:43;;;;;;;5.37;4.87;;;;;;;;;;5006385;28;20194;-51
2023/09/17 13:30:09;;;;;;;4.73;4.40;;;;;;;;;;5007080;28;20233;-51
2023/09/17 13:32:36;;;;;;;5.27;4.80;;;;;;;;;;5006994;28;20727;-51
2023/09/17 13:35:08;;;;;;;5.73;4.70;;;;;;;;;;5007032;28;20222;-50
2023/09/17 13:37:37;;;;;;;5.23;4.83;;;;;;;;;;5003798;28;21660;-51
2023/09/17 13:40:06;;;;;;;4.57;4.17;;;;;;;;;;5007516;28;20184;-50
2023/09/17 13:42:32;;;;;;;5.17;4.77;;;;;;;;;;5006933;28;20640;-51
2023/09/17 13:44:58;;;;;;;5.27;4.77;;;;;;;;;;5007444;28;20637;-50
2023/09/17 13:47:24;;;;;;;4.30;4.00;;;;;;;;;;5006188;28;20208;-51
2023/09/17 13:49:50;;;;;;;4.73;4.33;;;;;;;;;;5007327;28;20196;-50
2023/09/17 13:52:16;;;;;;;5.53;4.43;;;;;;;;;;5005774;28;20189;-50
2023/09/17 13:54:43;;;;;;;4.40;4.10;;;;;;;;;;5006864;28;20223;-50
2023/09/17 13:57:09;;;;;;;5.07;4.67;;;;;;;;;;5005849;28;20195;-49
2023/09/17 13:59:36;;;;;;;5.17;4.77;;;;;;;;;;5007437;28;20185;-51
2023/09/17 14:02:02;;;;;;;4.90;4.57;;;;;;;;;;5007081;28;20275;-51
2023/09/17 14:04:28;;;;;;;4.43;4.13;;;;;;;;;;5006066;28;20194;-50
2023/09/17 14:06:55;;;;;;;4.37;4.07;;;;;;;;;;5006317;28;20200;-51
2023/09/17 14:09:21;;;;;;;5.00;4.60;;;;;;;;;;5004352;28;20193;-49
2023/09/17 14:11:48;;;;;;;4.83;4.50;;;;;;;;;;5006422;28;20182;-51
2023/09/17 14:14:14;;;;;;;4.23;3.93;;;;;;;;;;5007181;28;20200;-49
2023/09/17 14:16:41;;;;;;;4.83;4.43;;;;;;;;;;5006900;28;20675;-50
2023/09/17 14:19:07;;;;;;;5.10;4.40;;;;;;;;;;5005846;28;20683;-52
2023/09/17 14:21:38;;;;;;;4.73;4.17;;;;;;;;;;5006261;28;20538;-51
2023/09/17 14:24:05;;;;;;;4.87;4.37;;;;;;;;;;5005203;28;20230;-51
2023/09/17 14:26:31;;;;;;;4.50;4.20;;;;;;;;;;5003934;28;20547;-51
2023/09/17 14:28:57;;;;;;;4.57;4.20;;;;;;;;;;5004433;28;20264;-51
2023/09/17 14:31:23;;;;;;;4.47;4.18;;;;;;;;;;5005799;28;20211;-50
2023/09/17 14:33:49;;;;;;;4.32;4.03;;;;;;;;;;5005543;28;20186;-50
2023/09/17 14:36:16;;;;;;;4.70;4.30;;;;;;;;;;4987057;28;20211;-50
2023/09/17 14:38:42;;;;;;;4.35;4.05;;;;;;;;;;5004070;28;20190;-51
2023/09/17 14:41:08;;;;;;;4.80;4.50;;;;;;;;;;5004641;28;20182;-50